sensor_id;sensor_type;location;lat;lon;timestamp;pressure;altitude;pressure_sealevel;temperature;humidity
14885;BME280;7534;50.762;7.000;2023-03-01T00:01:19;89077.59;;;-143.16;63.97
14885;BME280;7534;50.762;7.000;2023-03-01T00:03:45;88998.88;;;-143.16;63.69
14885;BME280;7534;50.762;7.000;2023-03-01T00:06:11;89077.59;;;-143.16;63.80
14885;BME280;7534;50.762;7.000;2023-03-01T00:08:37;89065.50;;;-143.16;63.90
14885;BME280;7534;50.762;7.000;2023-03-01T00:11:17;88837.34;;;-143.16;63.83
14885;BME280;7534;50.762;7.000;2023-03-01T00:13:45;88871.66;;;-143.16;63.45
14885;BME280;7534;50.762;7.000;2023-03-01T00:16:27;89180.59;;;-143.16;63.46
14885;BME280;7534;50.762;7.000;2023-03-01T00:18:55;89015.03;;;-143.16;63.45
14885;BME280;7534;50.762;7.000;2023-03-01T00:21:22;88968.56;;;-143.16;63.66
14885;BME280;7534;50.762;7.000;2023-03-01T00:23:49;89229.06;;;-143.16;63.87
14885;BME280;7534;50.762;7.000;2023-03-01T00:26:17;89144.25;;;-143.16;63.83
14885;BME280;7534;50.762;7.000;2023-03-01T00:28:43;89435.03;;;-143.16;64.08
14885;BME280;7534;50.762;7.000;2023-03-01T00:31:21;89039.25;;;-143.16;64.48
14885;BME280;7534;50.762;7.000;2023-03-01T00:33:47;89303.78;;;-143.16;64.50
14885;BME280;7534;50.762;7.000;2023-03-01T00:36:15;89202.81;;;-143.16;65.02
14885;BME280;7534;50.762;7.000;2023-03-01T00:38:43;89077.59;;;-143.16;64.61
14885;BME280;7534;50.762;7.000;2023-03-01T00:41:17;89148.28;;;-143.16;64.59
14885;BME280;7534;50.762;7.000;2023-03-01T00:43:43;89105.88;;;-143.16;64.39
14885;BME280;7534;50.762;7.000;2023-03-01T00:46:21;89144.25;;;-143.16;64.88
14885;BME280;7534;50.762;7.000;2023-03-01T00:48:47;89077.59;;;-143.16;65.57
14885;BME280;7534;50.762;7.000;2023-03-01T00:51:20;89128.09;;;-143.16;65.67
14885;BME280;7534;50.762;7.000;2023-03-01T00:53:46;89105.88;;;-143.16;65.91
14885;BME280;7534;50.762;7.000;2023-03-01T00:56:14;89156.34;;;-143.16;66.29
14885;BME280;7534;50.762;7.000;2023-03-01T00:58:40;89186.66;;;-143.16;66.30
14885;BME280;7534;50.762;7.000;2023-03-01T01:01:19;89190.69;;;-143.16;66.81
14885;BME280;7534;50.762;7.000;2023-03-01T01:03:58;89041.25;;;-143.16;66.71
14885;BME280;7534;50.762;7.000;2023-03-01T01:06:37;89164.44;;;-143.16;66.83
14885;BME280;7534;50.762;7.000;2023-03-01T01:09:06;89128.09;;;-143.16;66.80
14885;BME280;7534;50.762;7.000;2023-03-01T01:11:33;89037.22;;;-143.16;66.88
14885;BME280;7534;50.762;7.000;2023-03-01T01:14:00;89156.34;;;-143.16;66.72
14885;BME280;7534;50.762;7.000;2023-03-01T01:16:28;88760.63;;;-143.16;66.87
14885;BME280;7534;50.762;7.000;2023-03-01T01:18:56;88811.09;;;-143.16;67.28
14885;BME280;7534;50.762;7.000;2023-03-01T01:21:23;89008.97;;;-143.16;67.16
14885;BME280;7534;50.762;7.000;2023-03-01T01:23:50;89176.56;;;-143.16;67.36
14885;BME280;7534;50.762;7.000;2023-03-01T01:26:23;89057.41;;;-143.16;67.28
14885;BME280;7534;50.762;7.000;2023-03-01T01:28:49;89097.81;;;-143.16;67.44
14885;BME280;7534;50.762;7.000;2023-03-01T01:31:15;89093.75;;;-143.16;67.25
14885;BME280;7534;50.762;7.000;2023-03-01T01:33:41;89063.47;;;-143.16;67.33
14885;BME280;7534;50.762;7.000;2023-03-01T01:36:08;89158.38;;;-143.16;67.21
14885;BME280;7534;50.762;7.000;2023-03-01T01:38:36;89196.75;;;-143.16;66.74
14885;BME280;7534;50.762;7.000;2023-03-01T01:41:04;89077.59;;;-143.16;66.65
14885;BME280;7534;50.762;7.000;2023-03-01T01:43:35;88980.69;;;-143.16;66.37
14885;BME280;7534;50.762;7.000;2023-03-01T01:46:13;89198.75;;;-143.16;66.60
14885;BME280;7534;50.762;7.000;2023-03-01T01:48:50;89295.69;;;-143.16;66.57
14885;BME280;7534;50.762;7.000;2023-03-01T01:51:28;89091.75;;;-143.16;66.69
14885;BME280;7534;50.762;7.000;2023-03-01T01:54:10;89239.16;;;-143.16;66.85
14885;BME280;7534;50.762;7.000;2023-03-01T01:56:42;88629.38;;;-143.16;66.76
14885;BME280;7534;50.762;7.000;2023-03-01T01:59:11;89190.69;;;-143.16;66.73
14885;BME280;7534;50.762;7.000;2023-03-01T02:01:38;89118.00;;;-143.16;67.04
14885;BME280;7534;50.762;7.000;2023-03-01T02:04:04;89156.34;;;-143.16;67.09
14885;BME280;7534;50.762;7.000;2023-03-01T02:06:38;89164.44;;;-143.16;66.96
14885;BME280;7534;50.762;7.000;2023-03-01T02:09:12;89223.00;;;-143.16;66.99
14885;BME280;7534;50.762;7.000;2023-03-01T02:11:39;89196.75;;;-143.16;67.49
14885;BME280;7534;50.762;7.000;2023-03-01T02:14:05;89196.75;;;-143.16;67.04
14885;BME280;7534;50.762;7.000;2023-03-01T02:16:31;89059.44;;;-143.16;67.14
14885;BME280;7534;50.762;7.000;2023-03-01T02:18:58;89196.75;;;-143.16;67.26
14885;BME280;7534;50.762;7.000;2023-03-01T02:21:40;89186.66;;;-143.16;67.01
14885;BME280;7534;50.762;7.000;2023-03-01T02:27:12;89105.88;;;-143.16;67.11
14885;BME280;7534;50.762;7.000;2023-03-01T02:29:38;88972.63;;;-143.16;66.28
14885;BME280;7534;50.762;7.000;2023-03-01T02:32:05;89085.69;;;-143.16;66.62
14885;BME280;7534;50.762;7.000;2023-03-01T02:34:32;89109.91;;;-143.16;66.73
14885;BME280;7534;50.762;7.000;2023-03-01T02:37:09;88950.41;;;-143.16;66.80
14885;BME280;7534;50.762;7.000;2023-03-01T02:39:47;89027.13;;;-143.16;67.17
14885;BME280;7534;50.762;7.000;2023-03-01T02:42:20;89174.53;;;-143.16;67.02
14885;BME280;7534;50.762;7.000;2023-03-01T02:44:49;89118.00;;;-143.16;67.70
14885;BME280;7534;50.762;7.000;2023-03-01T02:47:15;89162.41;;;-143.16;67.89
14885;BME280;7534;50.762;7.000;2023-03-01T02:49:40;88986.75;;;-143.16;68.40
14885;BME280;7534;50.762;7.000;2023-03-01T02:52:41;89186.66;;;-143.16;68.33
14885;BME280;7534;50.762;7.000;2023-03-01T02:55:16;89130.09;;;-143.16;68.29
14885;BME280;7534;50.762;7.000;2023-03-01T02:57:45;89097.81;;;-143.16;68.54
14885;BME280;7534;50.762;7.000;2023-03-01T03:00:15;89311.84;;;-143.16;68.44
14885;BME280;7534;50.762;7.000;2023-03-01T03:02:46;89239.16;;;-143.16;68.38
14885;BME280;7534;50.762;7.000;2023-03-01T03:05:17;89239.16;;;-143.16;68.73
14885;BME280;7534;50.762;7.000;2023-03-01T03:07:46;89174.53;;;-143.16;68.27
14885;BME280;7534;50.762;7.000;2023-03-01T03:10:24;89126.06;;;-143.16;68.35
14885;BME280;7534;50.762;7.000;2023-03-01T03:12:56;89223.00;;;-143.16;68.57
14885;BME280;7534;50.762;7.000;2023-03-01T03:15:23;89162.41;;;-143.16;68.82
14885;BME280;7534;50.762;7.000;2023-03-01T03:17:52;89166.47;;;-143.16;69.06
14885;BME280;7534;50.762;7.000;2023-03-01T03:20:22;89077.59;;;-143.16;69.33
14885;BME280;7534;50.762;7.000;2023-03-01T03:22:55;89194.72;;;-143.16;68.98
14885;BME280;7534;50.762;7.000;2023-03-01T03:25:22;89186.66;;;-143.16;69.39
14885;BME280;7534;50.762;7.000;2023-03-01T03:27:50;89168.47;;;-143.16;69.27
14885;BME280;7534;50.762;7.000;2023-03-01T03:30:29;89158.38;;;-143.16;69.00
14885;BME280;7534;50.762;7.000;2023-03-01T03:32:56;89198.75;;;-143.16;69.09
14885;BME280;7534;50.762;7.000;2023-03-01T03:35:44;89047.31;;;-143.16;69.43
14885;BME280;7534;50.762;7.000;2023-03-01T03:38:13;89208.88;;;-143.16;69.58
14885;BME280;7534;50.762;7.000;2023-03-01T03:40:52;89529.94;;;-143.16;69.32
14885;BME280;7534;50.762;7.000;2023-03-01T03:43:22;89194.72;;;-143.16;69.13
14885;BME280;7534;50.762;7.000;2023-03-01T03:45:50;89178.56;;;-143.16;68.91
14885;BME280;7534;50.762;7.000;2023-03-01T03:48:17;89061.47;;;-143.16;69.26
14885;BME280;7534;50.762;7.000;2023-03-01T03:50:55;89182.59;;;-143.16;69.51
14885;BME280;7534;50.762;7.000;2023-03-01T03:53:23;89206.84;;;-143.16;69.62
14885;BME280;7534;50.762;7.000;2023-03-01T03:55:50;89247.22;;;-143.16;69.52
14885;BME280;7534;50.762;7.000;2023-03-01T03:58:18;89097.81;;;-143.16;69.58
14885;BME280;7534;50.762;7.000;2023-03-01T04:00:47;88914.06;;;-143.16;69.81
14885;BME280;7534;50.762;7.000;2023-03-01T04:03:14;89243.19;;;-143.16;69.76
14885;BME280;7534;50.762;7.000;2023-03-01T04:05:41;89174.53;;;-143.16;69.71
14885;BME280;7534;50.762;7.000;2023-03-01T04:08:08;89021.06;;;-143.16;69.74
14885;BME280;7534;50.762;7.000;2023-03-01T04:10:44;89263.38;;;-143.16;69.89
14885;BME280;7534;50.762;7.000;2023-03-01T04:13:17;89239.16;;;-143.16;69.94
14885;BME280;7534;50.762;7.000;2023-03-01T04:15:49;89138.19;;;-143.16;69.96
14885;BME280;7534;50.762;7.000;2023-03-01T04:18:18;89043.28;;;-143.16;69.83
14885;BME280;7534;50.762;7.000;2023-03-01T04:20:45;89206.84;;;-143.16;69.83
14885;BME280;7534;50.762;7.000;2023-03-01T04:23:14;89218.97;;;-143.16;69.83
14885;BME280;7534;50.762;7.000;2023-03-01T04:25:55;89223.00;;;-143.16;70.02
14885;BME280;7534;50.762;7.000;2023-03-01T04:28:26;89101.84;;;-143.16;70.22
14885;BME280;7534;50.762;7.000;2023-03-01T04:30:54;89101.84;;;-143.16;70.39
14885;BME280;7534;50.762;7.000;2023-03-01T04:33:21;89202.81;;;-143.16;70.30
14885;BME280;7534;50.762;7.000;2023-03-01T04:35:49;89368.38;;;-143.16;70.27
14885;BME280;7534;50.762;7.000;2023-03-01T04:38:19;89404.72;;;-143.16;70.50
14885;BME280;7534;50.762;7.000;2023-03-01T04:40:45;89023.09;;;-143.16;70.33
14885;BME280;7534;50.762;7.000;2023-03-01T04:43:12;89218.97;;;-143.16;70.28
14885;BME280;7534;50.762;7.000;2023-03-01T04:45:41;89051.38;;;-143.16;70.45
14885;BME280;7534;50.762;7.000;2023-03-01T04:48:07;88819.16;;;-143.16;70.55
14885;BME280;7534;50.762;7.000;2023-03-01T04:50:33;89590.53;;;-143.16;70.39
14885;BME280;7534;50.762;7.000;2023-03-01T04:52:58;88960.50;;;-143.16;70.59
14885;BME280;7534;50.762;7.000;2023-03-01T04:55:26;89158.38;;;-143.16;70.86
14885;BME280;7534;50.762;7.000;2023-03-01T04:57:52;89101.84;;;-143.16;70.75
14885;BME280;7534;50.762;7.000;2023-03-01T05:00:19;89519.84;;;-143.16;70.31
14885;BME280;7534;50.762;7.000;2023-03-01T05:02:54;89243.19;;;-143.16;70.17
14885;BME280;7534;50.762;7.000;2023-03-01T05:05:34;89247.22;;;-143.16;70.16
14885;BME280;7534;50.762;7.000;2023-03-01T05:08:06;89057.41;;;-143.16;70.48
14885;BME280;7534;50.762;7.000;2023-03-01T05:10:35;89202.81;;;-143.16;70.42
14885;BME280;7534;50.762;7.000;2023-03-01T05:13:03;89210.88;;;-143.16;70.79
14885;BME280;7534;50.762;7.000;2023-03-01T05:15:31;89253.28;;;-143.16;70.76
14885;BME280;7534;50.762;7.000;2023-03-01T05:17:59;89200.78;;;-143.16;71.08
14885;BME280;7534;50.762;7.000;2023-03-01T05:20:29;89192.72;;;-143.16;70.97
14885;BME280;7534;50.762;7.000;2023-03-01T05:22:58;89118.00;;;-143.16;71.06
14885;BME280;7534;50.762;7.000;2023-03-01T05:25:25;89186.66;;;-143.16;71.05
14885;BME280;7534;50.762;7.000;2023-03-01T05:27:51;89079.63;;;-143.16;70.88
14885;BME280;7534;50.762;7.000;2023-03-01T05:30:17;89144.25;;;-143.16;70.80
14885;BME280;7534;50.762;7.000;2023-03-01T05:32:49;89172.50;;;-143.16;70.78
14885;BME280;7534;50.762;7.000;2023-03-01T05:35:21;89202.81;;;-143.16;71.08
14885;BME280;7534;50.762;7.000;2023-03-01T05:37:49;89180.59;;;-143.16;71.19
14885;BME280;7534;50.762;7.000;2023-03-01T05:40:21;89259.34;;;-143.16;71.12
14885;BME280;7534;50.762;7.000;2023-03-01T05:42:53;89188.66;;;-143.16;71.22
14885;BME280;7534;50.762;7.000;2023-03-01T05:45:20;89194.72;;;-143.16;71.20
14885;BME280;7534;50.762;7.000;2023-03-01T05:47:48;89176.56;;;-143.16;71.14
14885;BME280;7534;50.762;7.000;2023-03-01T05:50:19;89029.16;;;-143.16;70.96
14885;BME280;7534;50.762;7.000;2023-03-01T05:53:00;89235.09;;;-143.16;71.18
14885;BME280;7534;50.762;7.000;2023-03-01T05:55:29;89093.75;;;-143.16;71.08
14885;BME280;7534;50.762;7.000;2023-03-01T05:57:58;89178.56;;;-143.16;70.97
14885;BME280;7534;50.762;7.000;2023-03-01T06:00:24;89204.81;;;-143.16;70.81
14885;BME280;7534;50.762;7.000;2023-03-01T06:02:50;89148.28;;;-143.16;71.05
14885;BME280;7534;50.762;7.000;2023-03-01T06:05:17;89223.00;;;-143.16;70.72
14885;BME280;7534;50.762;7.000;2023-03-01T06:07:43;89566.28;;;-143.16;70.51
14885;BME280;7534;50.762;7.000;2023-03-01T06:10:11;89412.81;;;-143.16;70.50
14885;BME280;7534;50.762;7.000;2023-03-01T06:12:39;89200.78;;;-143.16;71.06
14885;BME280;7534;50.762;7.000;2023-03-01T06:15:06;89136.16;;;-143.16;70.96
14885;BME280;7534;50.762;7.000;2023-03-01T06:17:34;88966.56;;;-143.16;71.22
14885;BME280;7534;50.762;7.000;2023-03-01T06:22:33;89162.41;;;-143.16;71.80
14885;BME280;7534;50.762;7.000;2023-03-01T06:24:59;89144.25;;;-143.16;71.84
14885;BME280;7534;50.762;7.000;2023-03-01T06:27:25;89190.69;;;-143.16;71.83
14885;BME280;7534;50.762;7.000;2023-03-01T06:29:50;89148.28;;;-143.16;71.92
14885;BME280;7534;50.762;7.000;2023-03-01T06:32:16;89214.91;;;-143.16;71.94
14885;BME280;7534;50.762;7.000;2023-03-01T06:34:42;89154.34;;;-143.16;72.15
14885;BME280;7534;50.762;7.000;2023-03-01T06:37:08;89166.47;;;-143.16;72.49
14885;BME280;7534;50.762;7.000;2023-03-01T06:39:34;89130.09;;;-143.16;72.15
14885;BME280;7534;50.762;7.000;2023-03-01T06:42:00;89105.88;;;-143.16;72.25
14885;BME280;7534;50.762;7.000;2023-03-01T06:44:26;89253.28;;;-143.16;72.21
14885;BME280;7534;50.762;7.000;2023-03-01T06:46:52;89095.78;;;-143.16;72.33
14885;BME280;7534;50.762;7.000;2023-03-01T06:49:18;89065.50;;;-143.16;72.37
14885;BME280;7534;50.762;7.000;2023-03-01T06:51:45;89087.72;;;-143.16;72.51
14885;BME280;7534;50.762;7.000;2023-03-01T06:54:12;89174.53;;;-143.16;72.71
14885;BME280;7534;50.762;7.000;2023-03-01T06:56:38;89150.31;;;-143.16;73.10
14885;BME280;7534;50.762;7.000;2023-03-01T06:59:04;89162.41;;;-143.16;73.04
14885;BME280;7534;50.762;7.000;2023-03-01T07:01:31;89101.84;;;-143.16;73.30
14885;BME280;7534;50.762;7.000;2023-03-01T07:03:57;89166.47;;;-143.16;73.01
14885;BME280;7534;50.762;7.000;2023-03-01T07:06:23;89101.84;;;-143.16;73.67
14885;BME280;7534;50.762;7.000;2023-03-01T07:08:49;89089.72;;;-143.16;73.42
14885;BME280;7534;50.762;7.000;2023-03-01T07:11:15;89178.56;;;-143.16;73.48
14885;BME280;7534;50.762;7.000;2023-03-01T07:13:41;89124.06;;;-143.16;73.47
14885;BME280;7534;50.762;7.000;2023-03-01T07:16:07;89021.06;;;-143.16;73.55
14885;BME280;7534;50.762;7.000;2023-03-01T07:18:34;89033.19;;;-143.16;73.58
14885;BME280;7534;50.762;7.000;2023-03-01T07:21:05;88968.56;;;-143.16;72.42
14885;BME280;7534;50.762;7.000;2023-03-01T07:23:31;89037.22;;;-143.16;70.89
14885;BME280;7534;50.762;7.000;2023-03-01T07:25:57;89027.13;;;-143.16;73.31
14885;BME280;7534;50.762;7.000;2023-03-01T07:28:24;89188.66;;;-143.16;73.82
14885;BME280;7534;50.762;7.000;2023-03-01T07:30:50;88772.72;;;-143.16;73.82
14885;BME280;7534;50.762;7.000;2023-03-01T07:33:16;88696.00;;;-143.16;71.10
14885;BME280;7534;50.762;7.000;2023-03-01T07:35:42;88603.13;;;-143.16;65.64
14885;BME280;7534;50.762;7.000;2023-03-01T07:38:07;88526.41;;;-143.16;60.00
14885;BME280;7534;50.762;7.000;2023-03-01T07:40:33;88377.03;;;-143.16;51.63
14885;BME280;7534;50.762;7.000;2023-03-01T07:42:59;88177.16;;;-143.16;44.53
14885;BME280;7534;50.762;7.000;2023-03-01T07:45:27;88161.03;;;-143.16;41.22
14885;BME280;7534;50.762;7.000;2023-03-01T07:47:53;87951.09;;;-143.16;35.69
14885;BME280;7534;50.762;7.000;2023-03-01T07:50:20;87749.25;;;-143.16;32.27
14885;BME280;7534;50.762;7.000;2023-03-01T07:52:49;87565.56;;;-143.16;30.37
14885;BME280;7534;50.762;7.000;2023-03-01T07:55:16;87494.94;;;-143.16;28.13
14885;BME280;7534;50.762;7.000;2023-03-01T07:57:41;87430.34;;;-143.16;27.27
14885;BME280;7534;50.762;7.000;2023-03-01T08:00:11;87507.03;;;-143.16;26.88
14885;BME280;7534;50.762;7.000;2023-03-01T08:02:37;87503.00;;;-143.16;27.04
14885;BME280;7534;50.762;7.000;2023-03-01T08:05:03;87563.56;;;-143.16;27.70
14885;BME280;7534;50.762;7.000;2023-03-01T08:07:30;87763.38;;;-143.16;27.91
14885;BME280;7534;50.762;7.000;2023-03-01T08:09:56;87678.59;;;-143.16;28.34
14885;BME280;7534;50.762;7.000;2023-03-01T08:12:22;87644.28;;;-143.16;28.03
14885;BME280;7534;50.762;7.000;2023-03-01T08:14:47;87591.81;;;-143.16;27.53
14885;BME280;7534;50.762;7.000;2023-03-01T08:17:14;87866.31;;;-143.16;28.12
14885;BME280;7534;50.762;7.000;2023-03-01T08:19:40;87789.63;;;-143.16;28.70
14885;BME280;7534;50.762;7.000;2023-03-01T08:22:05;88003.56;;;-143.16;30.62
14885;BME280;7534;50.762;7.000;2023-03-01T08:24:31;87967.25;;;-143.16;30.42
14885;BME280;7534;50.762;7.000;2023-03-01T08:26:57;88023.75;;;-143.16;30.65
14885;BME280;7534;50.762;7.000;2023-03-01T08:29:23;87997.50;;;-143.16;30.08
14885;BME280;7534;50.762;7.000;2023-03-01T08:31:50;87716.94;;;-143.16;29.40
14885;BME280;7534;50.762;7.000;2023-03-01T08:34:18;87886.50;;;-143.16;28.81
14885;BME280;7534;50.762;7.000;2023-03-01T08:36:45;87809.78;;;-143.16;28.84
14885;BME280;7534;50.762;7.000;2023-03-01T08:39:15;87862.28;;;-143.16;28.37
14885;BME280;7534;50.762;7.000;2023-03-01T08:41:42;87844.09;;;-143.16;28.44
14885;BME280;7534;50.762;7.000;2023-03-01T08:44:09;88017.69;;;-143.16;29.11
14885;BME280;7534;50.762;7.000;2023-03-01T08:46:38;88154.97;;;-143.16;29.89
14885;BME280;7534;50.762;7.000;2023-03-01T08:49:15;88227.63;;;-143.16;32.05
14885;BME280;7534;50.762;7.000;2023-03-01T08:51:42;88086.34;;;-143.16;31.67
14885;BME280;7534;50.762;7.000;2023-03-01T08:54:16;88340.69;;;-143.16;34.72
14885;BME280;7534;50.762;7.000;2023-03-01T08:56:42;88270.03;;;-143.16;33.99
14885;BME280;7534;50.762;7.000;2023-03-01T08:59:10;88104.50;;;-143.16;31.64
14885;BME280;7534;50.762;7.000;2023-03-01T09:01:36;88118.63;;;-143.16;31.90
14885;BME280;7534;50.762;7.000;2023-03-01T09:04:06;87985.41;;;-143.16;32.21
14885;BME280;7534;50.762;7.000;2023-03-01T09:06:36;88136.78;;;-143.16;33.19
14885;BME280;7534;50.762;7.000;2023-03-01T09:09:05;88350.78;;;-143.16;33.16
14885;BME280;7534;50.762;7.000;2023-03-01T09:11:33;88080.28;;;-143.16;32.10
14885;BME280;7534;50.762;7.000;2023-03-01T09:13:59;87838.06;;;-143.16;29.95
14885;BME280;7534;50.762;7.000;2023-03-01T09:16:25;87819.88;;;-143.16;28.51
14885;BME280;7534;50.762;7.000;2023-03-01T09:18:54;87648.31;;;-143.16;27.64
14885;BME280;7534;50.762;7.000;2023-03-01T10:13:23;88072.19;;;-143.16;29.48
14885;BME280;7534;50.762;7.000;2023-03-01T10:15:56;88227.63;;;-143.16;31.14
14885;BME280;7534;50.762;7.000;2023-03-01T10:18:29;88300.31;;;-143.16;32.21
14885;BME280;7534;50.762;7.000;2023-03-01T10:21:21;88383.09;;;-143.16;33.64
14885;BME280;7534;50.762;7.000;2023-03-01T10:23:51;88395.19;;;-143.16;34.51
14885;BME280;7534;50.762;7.000;2023-03-01T10:26:40;88431.53;;;-143.16;35.37
14885;BME280;7534;50.762;7.000;2023-03-01T10:29:14;88516.31;;;-143.16;35.34
14885;BME280;7534;50.762;7.000;2023-03-01T10:31:48;88477.97;;;-143.16;36.77
14885;BME280;7534;50.762;7.000;2023-03-01T10:43:32;88560.75;;;-143.16;37.66
14885;BME280;7534;50.762;7.000;2023-03-01T11:59:43;88486.03;;;-143.16;34.54
14885;BME280;7534;50.762;7.000;2023-03-01T12:05:25;88439.59;;;-143.16;34.32
14885;BME280;7534;50.762;7.000;2023-03-01T12:08:33;88415.38;;;-143.16;34.19
14885;BME280;7534;50.762;7.000;2023-03-01T12:20:02;88443.66;;;-143.16;34.28
14885;BME280;7534;50.762;7.000;2023-03-01T12:23:13;88362.91;;;-143.16;33.84
14885;BME280;7534;50.762;7.000;2023-03-01T12:25:55;88334.63;;;-143.16;33.66
14885;BME280;7534;50.762;7.000;2023-03-01T12:38:31;88431.53;;;-143.16;33.83
14885;BME280;7534;50.762;7.000;2023-03-01T12:41:21;88366.94;;;-143.16;33.60
14885;BME280;7534;50.762;7.000;2023-03-01T12:44:09;88391.16;;;-143.16;33.37
14885;BME280;7534;50.762;7.000;2023-03-01T12:47:03;88389.13;;;-143.16;33.01
14885;BME280;7534;50.762;7.000;2023-03-01T12:49:40;88350.78;;;-143.16;32.94
14885;BME280;7534;50.762;7.000;2023-03-01T12:52:35;88336.66;;;-143.16;32.93
14885;BME280;7534;50.762;7.000;2023-03-01T12:55:20;88296.28;;;-143.16;32.69
14885;BME280;7534;50.762;7.000;2023-03-01T12:58:30;88314.44;;;-143.16;32.21
14885;BME280;7534;50.762;7.000;2023-03-01T13:06:44;88261.97;;;-143.16;31.84
14885;BME280;7534;50.762;7.000;2023-03-01T13:09:41;88326.56;;;-143.16;31.82
14885;BME280;7534;50.762;7.000;2023-03-01T13:17:49;88328.56;;;-143.16;31.92
14885;BME280;7534;50.762;7.000;2023-03-01T13:20:24;88274.06;;;-143.16;32.11
14885;BME280;7534;50.762;7.000;2023-03-01T13:23:04;88290.22;;;-143.16;31.30
14885;BME280;7534;50.762;7.000;2023-03-01T13:25:32;88257.91;;;-143.16;31.13
14885;BME280;7534;50.762;7.000;2023-03-01T13:34:00;88270.03;;;-143.16;30.67
14885;BME280;7534;50.762;7.000;2023-03-01T13:38:57;88278.09;;;-143.16;30.97
14885;BME280;7534;50.762;7.000;2023-03-01T13:47:07;88268.00;;;-143.16;31.05
14885;BME280;7534;50.762;7.000;2023-03-01T13:49:56;88225.63;;;-143.16;30.59
14885;BME280;7534;50.762;7.000;2023-03-01T13:52:45;88231.69;;;-143.16;31.02
14885;BME280;7534;50.762;7.000;2023-03-01T13:55:58;88253.88;;;-143.16;29.89
14885;BME280;7534;50.762;7.000;2023-03-01T13:58:44;88300.31;;;-143.16;29.70
14885;BME280;7534;50.762;7.000;2023-03-01T14:01:42;88225.63;;;-143.16;30.10
14885;BME280;7534;50.762;7.000;2023-03-01T14:04:31;88193.31;;;-143.16;29.80
14885;BME280;7534;50.762;7.000;2023-03-01T14:07:22;88205.44;;;-143.16;30.34
14885;BME280;7534;50.762;7.000;2023-03-01T14:10:03;88213.50;;;-143.16;30.33
14885;BME280;7534;50.762;7.000;2023-03-01T14:13:00;88130.75;;;-143.16;30.28
14885;BME280;7534;50.762;7.000;2023-03-01T14:15:39;88173.13;;;-143.16;30.02
14885;BME280;7534;50.762;7.000;2023-03-01T14:18:26;88179.19;;;-143.16;29.54
14885;BME280;7534;50.762;7.000;2023-03-01T14:20:55;88189.28;;;-143.16;29.21
14885;BME280;7534;50.762;7.000;2023-03-01T14:23:23;88169.09;;;-143.16;29.13
14885;BME280;7534;50.762;7.000;2023-03-01T14:25:53;88175.16;;;-143.16;29.14
14885;BME280;7534;50.762;7.000;2023-03-01T14:28:31;88219.56;;;-143.16;28.86
14885;BME280;7534;50.762;7.000;2023-03-01T14:31:03;88199.38;;;-143.16;28.81
14885;BME280;7534;50.762;7.000;2023-03-01T14:33:32;88187.25;;;-143.16;28.58
14885;BME280;7534;50.762;7.000;2023-03-01T14:36:14;88199.38;;;-143.16;28.38
14885;BME280;7534;50.762;7.000;2023-03-01T14:38:47;88177.16;;;-143.16;28.01
14885;BME280;7534;50.762;7.000;2023-03-01T14:41:17;88185.25;;;-143.16;28.94
14885;BME280;7534;50.762;7.000;2023-03-01T14:43:48;88193.31;;;-143.16;28.81
14885;BME280;7534;50.762;7.000;2023-03-01T14:46:43;88116.63;;;-143.16;29.25
14885;BME280;7534;50.762;7.000;2023-03-01T14:49:17;88106.53;;;-143.16;28.73
14885;BME280;7534;50.762;7.000;2023-03-01T14:52:04;88144.88;;;-143.16;28.92
14885;BME280;7534;50.762;7.000;2023-03-01T14:54:48;88163.03;;;-143.16;29.37
14885;BME280;7534;50.762;7.000;2023-03-01T14:57:19;88177.16;;;-143.16;29.35
14885;BME280;7534;50.762;7.000;2023-03-01T14:59:48;88154.97;;;-143.16;29.40
14885;BME280;7534;50.762;7.000;2023-03-01T15:02:19;88136.78;;;-143.16;29.39
14885;BME280;7534;50.762;7.000;2023-03-01T15:04:55;88179.19;;;-143.16;29.32
14885;BME280;7534;50.762;7.000;2023-03-01T15:07:26;88120.66;;;-143.16;29.42
14885;BME280;7534;50.762;7.000;2023-03-01T15:09:53;88179.19;;;-143.16;30.08
14885;BME280;7534;50.762;7.000;2023-03-01T15:12:45;88239.75;;;-143.16;29.60
14885;BME280;7534;50.762;7.000;2023-03-01T15:15:44;88167.06;;;-143.16;30.08
14885;BME280;7534;50.762;7.000;2023-03-01T15:20:41;88152.94;;;-143.16;30.51
14885;BME280;7534;50.762;7.000;2023-03-01T15:23:20;88144.88;;;-143.16;30.04
14885;BME280;7534;50.762;7.000;2023-03-01T15:25:48;88165.06;;;-143.16;29.97
14885;BME280;7534;50.762;7.000;2023-03-01T15:28:27;88175.16;;;-143.16;30.05
14885;BME280;7534;50.762;7.000;2023-03-01T15:31:13;88144.88;;;-143.16;30.00
14885;BME280;7534;50.762;7.000;2023-03-01T15:33:43;88181.22;;;-143.16;29.69
14885;BME280;7534;50.762;7.000;2023-03-01T15:36:46;88154.97;;;-143.16;29.67
14885;BME280;7534;50.762;7.000;2023-03-01T15:39:31;88201.41;;;-143.16;29.92
14885;BME280;7534;50.762;7.000;2023-03-01T15:42:07;88128.72;;;-143.16;29.81
14885;BME280;7534;50.762;7.000;2023-03-01T15:44:37;88177.16;;;-143.16;29.56
14885;BME280;7534;50.762;7.000;2023-03-01T15:47:29;88205.44;;;-143.16;29.79
14885;BME280;7534;50.762;7.000;2023-03-01T15:49:56;88201.41;;;-143.16;30.89
14885;BME280;7534;50.762;7.000;2023-03-01T15:52:29;88183.22;;;-143.16;31.89
14885;BME280;7534;50.762;7.000;2023-03-01T15:55:01;88177.16;;;-143.16;32.10
14885;BME280;7534;50.762;7.000;2023-03-01T15:57:28;88169.09;;;-143.16;32.16
14885;BME280;7534;50.762;7.000;2023-03-01T15:59:54;88205.44;;;-143.16;32.64
14885;BME280;7534;50.762;7.000;2023-03-01T16:02:22;88193.31;;;-143.16;32.77
14885;BME280;7534;50.762;7.000;2023-03-01T16:04:48;88175.16;;;-143.16;32.86
14885;BME280;7534;50.762;7.000;2023-03-01T16:07:14;88201.41;;;-143.16;33.09
14885;BME280;7534;50.762;7.000;2023-03-01T16:09:40;88225.63;;;-143.16;33.24
14885;BME280;7534;50.762;7.000;2023-03-01T16:12:12;88181.22;;;-143.16;33.89
14885;BME280;7534;50.762;7.000;2023-03-01T16:14:39;88241.78;;;-143.16;34.35
14885;BME280;7534;50.762;7.000;2023-03-01T16:17:05;88290.22;;;-143.16;34.46
14885;BME280;7534;50.762;7.000;2023-03-01T16:19:30;88223.59;;;-143.16;35.05
14885;BME280;7534;50.762;7.000;2023-03-01T16:21:56;88294.25;;;-143.16;34.97
14885;BME280;7534;50.762;7.000;2023-03-01T16:24:22;88268.00;;;-143.16;34.87